Weather at Hernando County Airport

Public forecast

Using degrees Fahrenheit for public forecast. Weather courtesy of forecast.io.

Current aviation weather report (METAR) for Hernando County Airport

Report is more than 6 hours old.

Retrieved 2021/01/25 00:53 UTC (1 day ago):

KBKV 250053Z 32003KT 10SM CLR 18/16 A3012 RMK AO2 SLP197 T01780156

Closest aviation forecast (TAF) to Hernando County Airport

Closest forecast is Tampa International Airport, 30.2 nm (55.9 km) S. Retrieved 2021-01-26 00:09 UTC (2 hours ago):

TAF KTPA 260206Z 2600/2706 20007KT P6SM SCT250 FM260200 18005KT P6SM SCT250 FM260800 17005KT 3SM BR SCT003 BKN007 TEMPO 2608/2612 1/2SM FG BKN003 FM261600 19006KT 6SM BR SCT007 BKN015 FM261800 21009KT P6SM SCT015 SCT035 FM270200 18005KT P6SM FEW250